createdAt,value
2022-08-26T00:01:46.853Z,45.05
2022-08-26T00:04:13.853Z,45.14
2022-08-26T00:06:42.692Z,45.42
2022-08-26T00:09:15.911Z,45.55
2022-08-26T00:11:43.068Z,45.05
2022-08-26T00:14:09.943Z,45.29
2022-08-26T00:16:36.862Z,45.41
2022-08-26T00:19:08.733Z,45.48
2022-08-26T00:21:35.908Z,45.19
2022-08-26T00:24:04.788Z,45.28
2022-08-26T00:26:33.877Z,45.39
2022-08-26T00:29:01.051Z,45.48
2022-08-26T00:31:27.933Z,45.62
2022-08-26T00:33:59.000Z,45.87
2022-08-26T00:36:29.803Z,45.47
2022-08-26T00:38:57.803Z,45.81
2022-08-26T00:41:24.645Z,46.04
2022-08-26T00:43:53.389Z,46.03
2022-08-26T00:46:28.741Z,45.69
2022-08-26T00:49:11.862Z,46.00
2022-08-26T00:51:48.365Z,45.90
2022-08-26T00:54:16.297Z,45.70
2022-08-26T00:56:59.834Z,45.96
2022-08-26T00:59:29.207Z,46.02
2022-08-26T01:02:02.542Z,46.22
2022-08-26T01:04:33.585Z,46.20
2022-08-26T01:07:00.793Z,45.96
2022-08-26T01:09:28.236Z,46.03
2022-08-26T01:11:59.429Z,46.05
2022-08-26T01:14:33.036Z,45.83
2022-08-26T01:17:05.092Z,46.12
2022-08-26T01:19:44.931Z,46.06
2022-08-26T01:22:21.728Z,45.92
2022-08-26T01:24:53.876Z,46.17
2022-08-26T01:27:22.034Z,46.27
2022-08-26T01:29:51.058Z,46.08
2022-08-26T01:32:22.426Z,46.15
2022-08-26T01:34:50.475Z,46.52
2022-08-26T01:37:33.832Z,46.09
2022-08-26T01:40:00.878Z,46.25
2022-08-26T01:42:28.529Z,46.59
2022-08-26T01:45:10.462Z,46.68
2022-08-26T01:47:38.609Z,46.43
2022-08-26T01:50:28.180Z,46.29
2022-08-26T01:53:00.582Z,46.49
2022-08-26T01:55:32.878Z,46.58
2022-08-26T01:58:05.648Z,46.52
2022-08-26T02:00:34.893Z,46.81
2022-08-26T02:03:17.874Z,47.01
2022-08-26T02:05:53.290Z,46.74
2022-08-26T02:08:36.351Z,46.96
2022-08-26T02:11:03.821Z,47.13
2022-08-26T02:13:33.661Z,46.96
2022-08-26T02:16:03.724Z,47.12
2022-08-26T02:18:35.305Z,47.05
2022-08-26T02:21:03.192Z,47.01
2022-08-26T02:23:34.142Z,46.98
2022-08-26T02:26:23.064Z,46.95
2022-08-26T02:29:03.862Z,46.87
2022-08-26T02:31:31.288Z,47.24
2022-08-26T02:34:21.304Z,47.13
2022-08-26T02:36:49.380Z,47.61
2022-08-26T02:39:22.067Z,47.53
2022-08-26T02:41:50.027Z,47.65
2022-08-26T02:44:17.441Z,47.58
2022-08-26T02:46:47.209Z,47.93
2022-08-26T02:49:16.215Z,48.03
2022-08-26T02:51:43.902Z,47.82
2022-08-26T02:54:10.780Z,48.06
2022-08-26T02:56:37.824Z,47.98
2022-08-26T02:59:04.702Z,48.16
2022-08-26T03:01:35.005Z,48.33
2022-08-26T03:04:05.220Z,48.50
2022-08-26T03:06:32.759Z,48.41
2022-08-26T03:08:59.686Z,48.21
2022-08-26T03:11:29.732Z,48.33
2022-08-26T03:14:00.548Z,48.26
2022-08-26T03:16:32.861Z,48.41
2022-08-26T03:19:00.924Z,48.48
2022-08-26T03:21:27.921Z,48.70
2022-08-26T03:23:54.894Z,48.71
2022-08-26T03:26:26.052Z,48.57
2022-08-26T03:29:11.613Z,48.73
2022-08-26T03:31:38.546Z,49.01
2022-08-26T03:34:06.952Z,48.61
2022-08-26T03:36:33.744Z,48.76
2022-08-26T03:39:04.881Z,48.72
2022-08-26T03:41:34.312Z,49.20
2022-08-26T03:44:01.973Z,49.24
2022-08-26T03:46:33.049Z,49.39
2022-08-26T03:49:01.890Z,48.97
2022-08-26T03:51:29.566Z,49.19
2022-08-26T03:53:58.991Z,49.09
2022-08-26T03:56:27.065Z,49.63
2022-08-26T03:58:54.248Z,49.49
2022-08-26T04:01:21.142Z,49.58
2022-08-26T04:04:00.878Z,49.69
2022-08-26T04:06:33.190Z,49.76
2022-08-26T04:09:05.285Z,49.95
2022-08-26T04:11:34.262Z,49.47
2022-08-26T04:14:06.455Z,50.11
2022-08-26T04:16:34.805Z,49.86
2022-08-26T04:19:02.255Z,50.03
2022-08-26T04:21:29.484Z,50.16
2022-08-26T04:23:56.405Z,49.91
2022-08-26T04:26:25.634Z,49.97
2022-08-26T04:28:55.315Z,49.86
2022-08-26T04:31:22.830Z,50.01
2022-08-26T04:33:50.735Z,49.95
2022-08-26T04:36:20.215Z,50.12
2022-08-26T04:38:47.843Z,50.54
2022-08-26T04:41:14.854Z,50.46
2022-08-26T04:43:42.940Z,50.25
2022-08-26T04:46:12.791Z,50.43
2022-08-26T04:48:40.896Z,50.49
2022-08-26T04:51:08.322Z,50.54
2022-08-26T04:53:37.020Z,50.74
2022-08-26T04:56:04.993Z,50.94
2022-08-26T04:58:32.524Z,50.58
2022-08-26T05:00:59.797Z,50.68
2022-08-26T05:03:30.265Z,50.57
2022-08-26T05:05:58.571Z,51.08
2022-08-26T05:08:26.088Z,51.06
2022-08-26T05:10:55.895Z,50.51
2022-08-26T05:13:26.155Z,50.93
2022-08-26T05:15:53.186Z,50.89
2022-08-26T05:18:23.610Z,50.79
2022-08-26T05:20:54.673Z,50.42
2022-08-26T05:23:23.792Z,50.42
2022-08-26T05:25:58.376Z,50.68
2022-08-26T05:28:29.004Z,50.17
2022-08-26T05:30:56.353Z,50.04
2022-08-26T05:33:23.662Z,50.21
2022-08-26T05:35:50.489Z,50.08
2022-08-26T05:38:21.089Z,50.07
2022-08-26T05:40:52.687Z,49.76
2022-08-26T05:43:20.472Z,49.36
2022-08-26T05:45:50.409Z,49.46
2022-08-26T05:48:24.255Z,48.88
2022-08-26T05:50:54.499Z,49.02
2022-08-26T05:53:23.872Z,49.03
2022-08-26T05:55:54.832Z,49.11
2022-08-26T05:58:23.643Z,48.95
2022-08-26T06:01:03.757Z,49.21
2022-08-26T06:03:34.033Z,48.67
2022-08-26T06:06:09.803Z,48.99
2022-08-26T06:08:37.577Z,48.93
2022-08-26T06:11:08.547Z,49.26
2022-08-26T06:13:45.956Z,48.93
2022-08-26T06:16:17.214Z,49.17
2022-08-26T06:18:46.992Z,49.82
2022-08-26T06:21:25.615Z,49.92
2022-08-26T06:24:15.429Z,50.01
2022-08-26T06:26:50.837Z,49.96
2022-08-26T06:29:24.105Z,50.51
2022-08-26T06:31:53.471Z,50.34
2022-08-26T06:34:20.479Z,50.31
2022-08-26T06:36:49.221Z,50.50
2022-08-26T06:39:19.042Z,50.63
2022-08-26T06:41:47.709Z,50.32
2022-08-26T06:44:16.348Z,50.19
2022-08-26T06:46:44.333Z,49.99
2022-08-26T06:49:12.850Z,49.97
2022-08-26T06:51:40.753Z,49.83
2022-08-26T06:54:10.294Z,50.15
2022-08-26T06:56:41.642Z,49.74
2022-08-26T06:59:11.178Z,49.87
2022-08-26T07:01:44.683Z,50.13
2022-08-26T07:04:15.752Z,49.71
2022-08-26T07:06:48.882Z,49.79
2022-08-26T07:09:16.801Z,49.98
2022-08-26T07:11:44.429Z,49.90
2022-08-26T07:14:12.036Z,49.67
2022-08-26T07:16:41.127Z,50.07
2022-08-26T07:19:11.214Z,49.59
2022-08-26T07:21:41.493Z,49.89
2022-08-26T07:24:11.058Z,49.52
2022-08-26T07:26:39.040Z,49.87
2022-08-26T07:29:12.274Z,49.69
2022-08-26T07:31:39.510Z,49.24
2022-08-26T07:34:10.470Z,49.65
2022-08-26T07:36:37.501Z,49.29
2022-08-26T07:39:04.833Z,49.38
2022-08-26T07:41:31.704Z,49.30
2022-08-26T07:43:59.281Z,49.12
2022-08-26T07:46:27.081Z,49.06
2022-08-26T07:48:57.763Z,48.85
2022-08-26T07:51:24.796Z,48.96
2022-08-26T07:53:53.148Z,48.75
2022-08-26T07:56:23.100Z,48.63
2022-08-26T07:58:51.983Z,48.92
2022-08-26T08:01:25.030Z,48.78
2022-08-26T08:03:53.982Z,48.79
2022-08-26T08:06:27.307Z,48.86
2022-08-26T08:08:55.734Z,48.97
2022-08-26T08:11:23.492Z,48.83
2022-08-26T08:13:52.347Z,48.47
2022-08-26T08:16:26.201Z,48.78
2022-08-26T08:18:53.497Z,48.55
2022-08-26T08:21:22.002Z,48.59
2022-08-26T08:23:56.584Z,48.86
2022-08-26T08:26:25.047Z,48.84
2022-08-26T08:28:56.569Z,48.54
2022-08-26T08:34:15.025Z,48.92
2022-08-26T08:36:42.030Z,49.04
2022-08-26T08:39:09.579Z,48.96
2022-08-26T08:42:10.786Z,48.54
2022-08-26T08:44:42.107Z,48.80
2022-08-26T08:47:34.284Z,48.89
2022-08-26T08:50:43.517Z,48.76
2022-08-26T08:53:16.918Z,48.63
2022-08-26T08:56:23.732Z,48.45
2022-08-26T08:59:20.703Z,48.50
2022-08-26T09:02:19.221Z,48.54
2022-08-26T09:05:25.150Z,48.38
2022-08-26T09:08:31.492Z,48.41
2022-08-26T09:11:01.448Z,48.35
2022-08-26T09:13:29.213Z,48.59
2022-08-26T09:16:11.622Z,48.49
2022-08-26T09:19:00.631Z,48.20
2022-08-26T09:21:28.948Z,48.44
2022-08-26T09:23:57.513Z,48.11
2022-08-26T09:26:39.598Z,48.09
2022-08-26T09:32:13.545Z,47.87
2022-08-26T09:35:15.319Z,47.75
2022-08-26T09:40:35.479Z,47.44
2022-08-26T09:43:22.491Z,47.59
2022-08-26T09:46:21.261Z,47.37
2022-08-26T09:48:48.413Z,47.50
2022-08-26T09:51:31.950Z,47.48
2022-08-26T09:54:01.757Z,47.17
2022-08-26T09:56:32.778Z,47.35
2022-08-26T09:59:01.522Z,47.11
2022-08-26T10:01:41.897Z,46.95
2022-08-26T10:04:24.615Z,46.93
2022-08-26T10:07:10.010Z,46.84
2022-08-26T10:09:42.981Z,46.50
2022-08-26T10:12:19.206Z,46.52
2022-08-26T10:14:56.389Z,46.18
2022-08-26T10:17:53.344Z,46.20
2022-08-26T10:20:31.196Z,46.06
2022-08-26T10:23:02.903Z,46.13
2022-08-26T10:25:38.699Z,45.55
2022-08-26T10:28:16.476Z,45.37
2022-08-26T10:30:53.415Z,45.38
2022-08-26T10:33:20.230Z,45.54
2022-08-26T10:36:00.214Z,45.35
2022-08-26T10:38:38.022Z,45.18
2022-08-26T10:41:18.545Z,44.88
2022-08-26T10:43:57.782Z,45.19
2022-08-26T10:46:39.637Z,44.88
2022-08-26T10:49:17.705Z,44.34
2022-08-26T10:52:40.547Z,44.32
2022-08-26T10:55:25.231Z,43.87
2022-08-26T10:58:26.679Z,43.73
2022-08-26T11:01:41.586Z,43.33
2022-08-26T11:04:51.424Z,43.53
2022-08-26T11:07:41.005Z,42.99
2022-08-26T11:10:17.128Z,42.77
2022-08-26T11:12:49.382Z,42.76
2022-08-26T11:15:24.643Z,42.33
2022-08-26T11:17:51.688Z,42.59
2022-08-26T11:20:41.469Z,42.40
2022-08-26T11:23:23.802Z,42.21
2022-08-26T11:25:57.151Z,41.55
2022-08-26T11:28:50.877Z,41.31
2022-08-26T11:31:18.898Z,40.83
2022-08-26T11:33:59.986Z,41.00
2022-08-26T11:36:42.035Z,40.66
2022-08-26T11:39:36.641Z,40.10
2022-08-26T11:42:24.982Z,40.18
2022-08-26T11:44:58.070Z,39.90
2022-08-26T11:47:32.468Z,39.57
2022-08-26T11:50:14.388Z,39.24
2022-08-26T11:52:41.235Z,39.66
2022-08-26T11:55:14.803Z,39.26
2022-08-26T11:57:49.727Z,39.04
2022-08-26T12:00:34.873Z,39.25
2022-08-26T12:03:07.705Z,39.00
2022-08-26T12:05:46.408Z,38.86
2022-08-26T12:08:21.549Z,39.06
2022-08-26T12:10:48.996Z,38.31
2022-08-26T12:13:26.586Z,38.03
2022-08-26T12:15:59.763Z,38.06
2022-08-26T12:18:37.215Z,38.06
2022-08-26T12:21:16.150Z,37.99
2022-08-26T12:23:47.694Z,37.53
2022-08-26T12:26:35.939Z,36.70
2022-08-26T12:29:19.926Z,36.83
2022-08-26T12:31:47.881Z,37.52
2022-08-26T12:34:17.894Z,36.36
2022-08-26T12:36:54.353Z,36.71
2022-08-26T12:39:30.253Z,36.43
2022-08-26T12:42:24.055Z,36.20
2022-08-26T12:45:03.269Z,35.77
2022-08-26T12:47:42.900Z,35.46
2022-08-26T12:50:30.038Z,35.35
2022-08-26T12:53:06.974Z,35.28
2022-08-26T12:55:50.656Z,34.61
2022-08-26T12:58:38.348Z,34.84
2022-08-26T13:01:05.253Z,33.89
2022-08-26T13:03:43.598Z,34.11
2022-08-26T13:06:27.842Z,34.08
2022-08-26T13:09:00.605Z,33.95
2022-08-26T13:11:41.186Z,33.35
2022-08-26T13:14:15.875Z,33.16
2022-08-26T13:16:51.498Z,33.22
2022-08-26T13:19:22.229Z,32.66
2022-08-26T13:21:53.929Z,32.65
2022-08-26T13:24:32.751Z,32.22
2022-08-26T13:27:00.782Z,31.82
2022-08-26T13:29:27.619Z,32.41
2022-08-26T13:31:55.745Z,32.42
2022-08-26T13:34:23.869Z,32.73
2022-08-26T13:36:55.171Z,32.80
2022-08-26T13:39:22.715Z,33.14
2022-08-26T13:41:49.860Z,33.11
2022-08-26T13:44:16.694Z,33.19
2022-08-26T13:49:15.283Z,33.55
2022-08-26T13:51:42.090Z,33.39
2022-08-26T13:54:09.367Z,33.64
2022-08-26T13:56:36.268Z,33.26
2022-08-26T13:59:04.544Z,33.53
2022-08-26T14:01:32.760Z,32.97
2022-08-26T14:03:59.701Z,33.52
2022-08-26T14:06:26.890Z,33.32
2022-08-26T14:08:53.668Z,33.62
2022-08-26T14:11:21.343Z,33.89
2022-08-26T14:13:48.183Z,34.16
2022-08-26T14:16:27.515Z,33.89
2022-08-26T14:18:54.522Z,33.91
2022-08-26T14:21:21.725Z,34.35
2022-08-26T14:23:48.668Z,34.23
2022-08-26T14:26:28.464Z,34.44
2022-08-26T14:29:02.425Z,34.35
2022-08-26T14:31:31.603Z,34.66
2022-08-26T14:34:06.153Z,34.50
2022-08-26T14:36:33.456Z,34.64
2022-08-26T14:39:07.591Z,34.64
2022-08-26T14:41:39.000Z,34.17
2022-08-26T14:44:11.578Z,34.49
2022-08-26T14:46:52.741Z,34.33
2022-08-26T14:49:21.544Z,34.68
2022-08-26T14:51:48.785Z,34.32
2022-08-26T14:54:17.935Z,34.25
2022-08-26T14:56:59.285Z,34.12
2022-08-26T14:59:34.537Z,34.29
2022-08-26T15:02:01.705Z,34.03
2022-08-26T15:04:29.238Z,34.32
2022-08-26T15:06:58.700Z,33.92
2022-08-26T15:09:27.540Z,34.12
2022-08-26T15:11:55.044Z,33.98
2022-08-26T15:14:22.686Z,34.07
2022-08-26T15:16:53.894Z,34.08
2022-08-26T15:19:26.243Z,34.35
2022-08-26T15:21:53.447Z,34.04
2022-08-26T15:24:23.954Z,33.99
2022-08-26T15:26:50.858Z,34.17
2022-08-26T15:29:18.492Z,34.08
2022-08-26T15:31:45.617Z,34.09
2022-08-26T15:34:16.319Z,34.02
2022-08-26T15:36:45.761Z,34.02
2022-08-26T15:39:14.509Z,33.37
2022-08-26T15:41:41.343Z,33.38
2022-08-26T15:44:11.285Z,33.77
2022-08-26T15:46:39.074Z,33.60
2022-08-26T15:49:06.544Z,33.98
2022-08-26T15:51:45.575Z,34.07
2022-08-26T15:54:15.934Z,34.16
2022-08-26T15:56:43.582Z,34.00
2022-08-26T15:59:11.446Z,33.82
2022-08-26T16:01:38.960Z,33.86
2022-08-26T16:04:06.344Z,33.79
2022-08-26T16:06:37.084Z,33.95
2022-08-26T16:09:05.769Z,34.37
2022-08-26T16:11:34.420Z,34.11
2022-08-26T16:14:01.431Z,34.60
2022-08-26T16:16:28.347Z,34.71
2022-08-26T16:18:55.218Z,34.97
2022-08-26T16:21:27.750Z,34.77
2022-08-26T16:23:56.483Z,34.92
2022-08-26T16:26:32.710Z,34.69
2022-08-26T16:29:02.258Z,34.37
2022-08-26T16:31:29.320Z,35.05
2022-08-26T16:33:56.406Z,34.93
2022-08-26T16:36:23.467Z,34.94
2022-08-26T16:38:56.248Z,35.15
2022-08-26T16:41:26.782Z,35.25
2022-08-26T16:43:54.693Z,35.72
2022-08-26T16:46:25.490Z,36.73
2022-08-26T16:48:58.129Z,37.05
2022-08-26T16:51:27.644Z,37.12
2022-08-26T16:53:56.748Z,37.01
2022-08-26T16:56:34.175Z,37.22
2022-08-26T16:59:04.084Z,37.08
2022-08-26T17:01:30.916Z,37.31
2022-08-26T17:03:57.811Z,37.47
2022-08-26T17:06:24.597Z,37.66
2022-08-26T17:08:52.967Z,37.85
2022-08-26T17:11:19.775Z,38.34
2022-08-26T17:13:46.644Z,38.47
2022-08-26T17:16:13.832Z,38.94
2022-08-26T17:18:40.929Z,39.24
2022-08-26T17:21:12.939Z,39.31
2022-08-26T17:23:41.464Z,39.33
2022-08-26T17:26:09.461Z,39.45
2022-08-26T17:28:36.381Z,39.49
2022-08-26T17:31:04.748Z,39.69
2022-08-26T17:33:32.731Z,39.45
2022-08-26T17:36:00.639Z,39.68
2022-08-26T17:38:29.017Z,39.33
2022-08-26T17:40:57.413Z,39.37
2022-08-26T17:43:26.629Z,39.44
2022-08-26T17:46:07.002Z,39.57
2022-08-26T17:48:36.267Z,40.18
2022-08-26T17:51:12.469Z,40.43
2022-08-26T17:53:41.127Z,40.72
2022-08-26T17:56:11.075Z,40.76
2022-08-26T17:58:37.977Z,41.27
2022-08-26T18:01:06.134Z,42.13
2022-08-26T18:03:33.384Z,42.24
2022-08-26T18:06:00.232Z,42.87
2022-08-26T18:08:27.031Z,43.27
2022-08-26T18:10:53.845Z,43.42
2022-08-26T18:13:20.631Z,43.64
2022-08-26T18:15:47.704Z,43.62
2022-08-26T18:18:15.944Z,44.27
2022-08-26T18:20:45.127Z,44.42
2022-08-26T18:23:13.015Z,44.47
2022-08-26T18:25:43.734Z,44.70
2022-08-26T18:28:10.919Z,44.99
2022-08-26T18:30:38.035Z,45.26
2022-08-26T18:33:04.889Z,45.49
2022-08-26T18:35:31.753Z,45.91
2022-08-26T18:38:07.719Z,46.12
2022-08-26T18:40:43.419Z,46.37
2022-08-26T18:43:12.034Z,46.68
2022-08-26T18:45:38.935Z,46.54
2022-08-26T18:48:06.134Z,47.11
2022-08-26T18:50:33.015Z,47.04
2022-08-26T18:53:01.805Z,46.95
2022-08-26T18:55:28.599Z,47.39
2022-08-26T18:57:55.391Z,47.33
2022-08-26T19:00:22.265Z,47.56
2022-08-26T19:02:52.015Z,47.75
2022-08-26T19:05:22.521Z,47.73
2022-08-26T19:07:49.326Z,47.39
2022-08-26T19:10:16.168Z,47.38
2022-08-26T19:12:43.482Z,46.80
2022-08-26T19:15:11.295Z,46.51
2022-08-26T19:17:38.120Z,46.12
2022-08-26T19:20:05.755Z,45.82
2022-08-26T19:22:32.575Z,45.62
2022-08-26T19:24:59.388Z,45.92
2022-08-26T19:27:26.175Z,45.74
2022-08-26T19:29:52.966Z,46.04
2022-08-26T19:32:24.096Z,46.04
2022-08-26T19:34:52.239Z,45.77
2022-08-26T19:37:20.267Z,46.07
2022-08-26T19:39:47.418Z,46.34
2022-08-26T19:42:14.334Z,46.36
2022-08-26T19:44:59.482Z,45.85
2022-08-26T19:47:26.312Z,46.40
2022-08-26T19:49:55.162Z,46.86
2022-08-26T19:52:24.249Z,48.14
2022-08-26T19:54:58.020Z,49.38
2022-08-26T19:57:24.887Z,50.08
2022-08-26T19:59:51.726Z,50.71
2022-08-26T20:02:19.162Z,50.74
2022-08-26T20:04:46.125Z,51.41
2022-08-26T20:07:18.119Z,52.33
2022-08-26T20:09:47.373Z,52.88
2022-08-26T20:12:15.362Z,53.35
2022-08-26T20:14:42.523Z,53.73
2022-08-26T20:17:09.397Z,53.85
2022-08-26T20:19:55.356Z,53.89
2022-08-26T20:22:22.620Z,54.49
2022-08-26T20:24:50.179Z,54.30
2022-08-26T20:27:16.996Z,54.18
2022-08-26T20:29:43.943Z,54.28
2022-08-26T20:32:11.988Z,54.76
2022-08-26T20:34:39.806Z,54.85
2022-08-26T20:37:08.347Z,54.71
2022-08-26T20:39:35.252Z,55.03
2022-08-26T20:42:03.056Z,55.22
2022-08-26T20:44:30.164Z,55.14
2022-08-26T20:46:58.999Z,55.28
2022-08-26T20:49:27.665Z,55.60
2022-08-26T20:51:55.012Z,55.87
2022-08-26T20:54:28.238Z,55.95
2022-08-26T20:56:57.213Z,55.95
2022-08-26T20:59:25.298Z,55.96
2022-08-26T21:01:53.019Z,56.18
2022-08-26T21:04:23.349Z,56.49
2022-08-26T21:06:52.382Z,56.74
2022-08-26T21:09:21.996Z,57.01
2022-08-26T21:11:49.938Z,57.25
2022-08-26T21:14:17.452Z,57.48
2022-08-26T21:16:45.617Z,57.56
2022-08-26T21:19:15.815Z,57.77
2022-08-26T21:21:44.360Z,57.82
2022-08-26T21:24:12.639Z,58.22
2022-08-26T21:26:39.428Z,58.42
2022-08-26T21:29:09.512Z,58.42
2022-08-26T21:31:40.010Z,58.85
2022-08-26T21:34:09.250Z,58.89
2022-08-26T21:36:36.062Z,58.84
2022-08-26T21:39:02.882Z,58.97
2022-08-26T21:41:29.936Z,59.05
2022-08-26T21:44:00.973Z,59.49
2022-08-26T21:46:30.326Z,59.15
2022-08-26T21:49:02.858Z,59.35
2022-08-26T21:51:33.570Z,59.17
2022-08-26T21:54:02.300Z,59.27
2022-08-26T21:56:32.838Z,59.56
2022-08-26T21:59:00.627Z,59.33
2022-08-26T22:01:32.498Z,59.40
2022-08-26T22:03:59.633Z,59.67
2022-08-26T22:06:28.289Z,59.34
2022-08-26T22:08:56.252Z,59.66
2022-08-26T22:11:24.480Z,59.51
2022-08-26T22:13:51.492Z,59.85
2022-08-26T22:16:19.107Z,59.58
2022-08-26T22:18:46.250Z,59.59
2022-08-26T22:21:19.570Z,59.52
2022-08-26T22:23:47.293Z,59.63
2022-08-26T22:26:20.623Z,59.44
2022-08-26T22:28:57.467Z,59.70
2022-08-26T22:31:28.075Z,59.65
2022-08-26T22:34:07.786Z,59.51
2022-08-26T22:36:34.836Z,59.65
2022-08-26T22:39:01.668Z,59.82
2022-08-26T22:41:28.487Z,59.63
2022-08-26T22:44:02.598Z,59.91
2022-08-26T22:46:29.700Z,59.86
2022-08-26T22:48:56.718Z,59.78
2022-08-26T22:51:23.892Z,59.58
2022-08-26T22:53:50.761Z,59.64
2022-08-26T22:56:19.009Z,59.74
2022-08-26T22:58:45.917Z,59.49
2022-08-26T23:01:13.215Z,59.92
2022-08-26T23:03:40.178Z,59.72
2022-08-26T23:06:10.054Z,59.67
2022-08-26T23:08:38.343Z,59.67
2022-08-26T23:11:09.844Z,59.65
2022-08-26T23:13:37.064Z,59.68
2022-08-26T23:16:09.086Z,59.58
2022-08-26T23:18:36.237Z,59.71
2022-08-26T23:21:03.146Z,59.41
2022-08-26T23:23:31.015Z,59.33
2022-08-26T23:25:58.329Z,59.51
2022-08-26T23:28:26.344Z,59.53
2022-08-26T23:30:53.790Z,59.10
2022-08-26T23:33:21.002Z,59.45
2022-08-26T23:35:47.832Z,59.47
2022-08-26T23:38:15.680Z,59.26
2022-08-26T23:40:42.696Z,59.07
2022-08-26T23:43:11.500Z,59.08
2022-08-26T23:45:38.762Z,59.28
2022-08-26T23:48:06.166Z,59.12
2022-08-26T23:50:51.453Z,59.14
2022-08-26T23:53:22.245Z,59.44
2022-08-26T23:55:52.214Z,59.22
2022-08-26T23:58:21.120Z,59.52
